Time,TemperatureF,DewpointF,PressureIn,WindDirection,WindDirectionDegrees,WindSpeedMPH,WindSpeedGustMPH,Humidity,HourlyPrecipIn,Conditions,Clouds,dailyrainin,SolarRadiationWatts/m^2,SoftwareType,DateUTC
2013-08-02 00:10:00,54.7,-99.9,29.98,NW,305,4.0,5.0,0,0.00,,,0.00,0,weatherlink.com 1.10,2013-08-02 07:10:00,
2013-08-02 00:25:00,54.6,-99.9,29.98,NW,325,0.0,4.0,0,0.00,,,0.00,0,weatherlink.com 1.10,2013-08-02 07:25:00,
2013-08-02 00:40:00,53.6,-99.9,29.98,North,5,2.0,4.0,0,0.00,,,0.00,0,weatherlink.com 1.10,2013-08-02 07:40:00,
2013-08-02 00:55:00,52.8,-99.9,29.97,NNE,12,1.0,4.0,0,0.00,,,0.00,0,weatherlink.com 1.10,2013-08-02 07:55:00,
2013-08-02 01:10:00,52.7,-99.9,29.97,NNE,12,0.0,1.0,0,0.00,,,0.00,0,weatherlink.com 1.10,2013-08-02 08:10:00,
2013-08-02 01:25:00,52.3,-99.9,29.96,NNE,12,0.0,1.0,0,0.00,,,0.00,0,weatherlink.com 1.10,2013-08-02 08:25:00,
2013-08-02 01:40:00,51.2,-99.9,29.96,NNE,12,0.0,2.0,0,0.00,,,0.00,0,weatherlink.com 1.10,2013-08-02 08:40:00,
2013-08-02 01:55:00,51.1,-99.9,29.96,NNE,12,0.0,1.0,0,0.00,,,0.00,0,weatherlink.com 1.10,2013-08-02 08:55:00,
2013-08-02 02:10:00,49.9,-99.9,29.96,NNE,12,0.0,2.0,0,0.00,,,0.00,0,weatherlink.com 1.10,2013-08-02 09:10:00,
2013-08-02 02:25:00,49.3,-99.9,29.96,NNE,12,1.0,1.0,0,0.00,,,0.00,0,weatherlink.com 1.10,2013-08-02 09:25:00,
2013-08-02 02:40:00,49.5,-99.9,29.95,NNE,12,0.0,1.0,0,0.00,,,0.00,0,weatherlink.com 1.10,2013-08-02 09:40:00,
2013-08-02 03:10:00,48.6,-99.9,29.95,NNE,13,0.0,3.0,0,0.00,,,0.00,0,weatherlink.com 1.10,2013-08-02 10:10:00,
2013-08-02 03:26:00,48.7,-99.9,29.95,NNE,13,0.0,3.0,0,0.00,,,0.00,0,weatherlink.com 1.10,2013-08-02 10:26:00,
2013-08-02 03:41:00,48.8,-99.9,29.95,NNE,13,0.0,0.0,0,0.00,,,0.00,0,weatherlink.com 1.10,2013-08-02 10:41:00,
2013-08-02 03:56:00,48.8,-99.9,29.95,NNE,13,0.0,1.0,0,0.00,,,0.00,0,weatherlink.com 1.10,2013-08-02 10:56:00,
2013-08-02 04:11:00,47.8,-99.9,29.95,NNE,13,0.0,1.0,0,0.00,,,0.00,0,weatherlink.com 1.10,2013-08-02 11:11:00,
2013-08-02 04:26:00,47.9,-99.9,29.94,NNE,13,0.0,1.0,0,0.00,,,0.00,0,weatherlink.com 1.10,2013-08-02 11:26:00,
2013-08-02 04:56:00,47.6,-99.9,29.94,NNE,13,0.0,3.0,0,0.00,,,0.00,0,weatherlink.com 1.10,2013-08-02 11:56:00,
2013-08-02 05:11:00,47.6,-99.9,29.95,NNE,13,0.0,2.0,0,0.00,,,0.00,0,weatherlink.com 1.10,2013-08-02 12:11:00,
2013-08-02 05:26:00,48.3,-99.9,29.95,NNE,13,0.0,1.0,0,0.01,,,0.01,0,weatherlink.com 1.10,2013-08-02 12:26:00,
2013-08-02 05:41:00,48.4,-99.9,29.95,NNE,13,0.0,1.0,0,0.01,,,0.01,0,weatherlink.com 1.10,2013-08-02 12:41:00,
2013-08-02 05:56:00,48.1,-99.9,29.95,NNE,13,0.0,2.0,0,0.01,,,0.01,0,weatherlink.com 1.10,2013-08-02 12:56:00,
2013-08-02 06:11:00,48.8,-99.9,29.95,NNE,13,0.0,1.0,0,0.01,,,0.01,0,weatherlink.com 1.10,2013-08-02 13:11:00,
2013-08-02 06:26:00,50.0,-99.9,29.95,NNE,13,0.0,2.0,0,0.00,,,0.01,7,weatherlink.com 1.10,2013-08-02 13:26:00,
2013-08-02 06:42:00,50.3,-99.9,29.95,NNE,13,1.0,2.0,0,0.00,,,0.01,14,weatherlink.com 1.10,2013-08-02 13:42:00,
2013-08-02 06:57:00,50.2,-99.9,29.95,NNE,12,1.0,1.0,0,0.00,,,0.01,18,weatherlink.com 1.10,2013-08-02 13:57:00,
2013-08-02 07:12:00,49.1,-99.9,29.96,NNE,12,0.0,1.0,0,0.00,,,0.01,37,weatherlink.com 1.10,2013-08-02 14:12:00,
2013-08-02 07:27:00,50.6,-99.9,29.96,NNE,12,0.0,1.0,0,0.00,,,0.01,149,weatherlink.com 1.10,2013-08-02 14:27:00,
2013-08-02 07:42:00,51.3,-99.9,29.96,NNE,12,0.0,1.0,0,0.00,,,0.01,200,weatherlink.com 1.10,2013-08-02 14:42:00,
2013-08-02 07:57:00,52.6,-99.9,29.97,NNE,12,0.0,2.0,0,0.00,,,0.01,255,weatherlink.com 1.10,2013-08-02 14:57:00,
2013-08-02 08:12:00,53.2,-99.9,29.98,NNE,12,0.0,1.0,0,0.00,,,0.01,309,weatherlink.com 1.10,2013-08-02 15:12:00,
2013-08-02 08:27:00,53.6,-99.9,29.98,NNE,12,0.0,1.0,0,0.00,,,0.01,366,weatherlink.com 1.10,2013-08-02 15:27:00,
2013-08-02 08:42:00,54.4,-99.9,29.98,West,273,0.0,3.0,0,0.00,,,0.01,434,weatherlink.com 1.10,2013-08-02 15:42:00,
2013-08-02 08:57:00,55.2,-99.9,29.98,WSW,252,2.0,4.0,0,0.00,,,0.01,487,weatherlink.com 1.10,2013-08-02 15:57:00,
2013-08-02 09:12:00,56.1,-99.9,29.98,WSW,248,4.0,5.0,0,0.00,,,0.01,533,weatherlink.com 1.10,2013-08-02 16:12:00,
2013-08-02 09:27:00,56.9,-99.9,29.98,WSW,255,1.0,7.0,0,0.00,,,0.01,582,weatherlink.com 1.10,2013-08-02 16:27:00,
2013-08-02 09:42:00,56.9,-99.9,29.98,WNW,287,3.0,7.0,0,0.00,,,0.01,624,weatherlink.com 1.10,2013-08-02 16:42:00,
2013-08-02 09:57:00,57.6,-99.9,29.98,WSW,240,1.0,9.0,0,0.00,,,0.01,668,weatherlink.com 1.10,2013-08-02 16:57:00,
2013-08-02 10:13:00,57.8,-43.0,29.98,West,277,7.0,9.0,1,0.00,,,0.01,710,weatherlink.com 1.10,2013-08-02 17:13:00,
2013-08-02 10:28:00,57.7,-31.0,29.97,West,277,5.0,11.0,2,0.00,,,0.01,749,weatherlink.com 1.10,2013-08-02 17:28:00,
2013-08-02 10:43:00,57.6,-23.0,29.97,WNW,296,5.0,9.0,3,0.00,,,0.01,782,weatherlink.com 1.10,2013-08-02 17:43:00,
2013-08-02 10:58:00,57.9,-18.0,29.97,WSW,242,3.0,11.0,4,0.00,,,0.01,816,weatherlink.com 1.10,2013-08-02 17:58:00,
2013-08-02 11:13:00,57.9,-4.0,29.97,NW,309,7.0,10.0,8,0.00,,,0.01,847,weatherlink.com 1.10,2013-08-02 18:13:00,
2013-08-02 11:28:00,58.1,-9.0,29.97,West,279,4.0,13.0,6,0.00,,,0.01,874,weatherlink.com 1.10,2013-08-02 18:28:00,
2013-08-02 11:43:00,58.7,4.0,29.97,NW,317,3.0,13.0,11,0.00,,,0.01,895,weatherlink.com 1.10,2013-08-02 18:43:00,
2013-08-02 11:58:00,59.2,10.0,29.97,West,281,3.0,12.0,14,0.00,,,0.01,916,weatherlink.com 1.10,2013-08-02 18:58:00,
2013-08-02 12:13:00,59.4,13.0,29.96,West,261,7.0,14.0,16,0.00,,,0.01,937,weatherlink.com 1.10,2013-08-02 19:13:00,
2013-08-02 12:28:00,59.1,17.0,29.96,WNW,287,5.0,15.0,19,0.00,,,0.01,947,weatherlink.com 1.10,2013-08-02 19:28:00,
2013-08-02 12:43:00,59.0,18.0,29.95,WNW,287,5.0,14.0,20,0.00,,,0.01,956,weatherlink.com 1.10,2013-08-02 19:43:00,
2013-08-02 12:58:00,59.1,14.0,29.96,West,281,4.0,11.0,17,0.00,,,0.01,963,weatherlink.com 1.10,2013-08-02 19:58:00,
2013-08-02 13:13:00,59.4,14.0,29.95,WSW,239,2.0,16.0,17,0.00,,,0.01,965,weatherlink.com 1.10,2013-08-02 20:13:00,
2013-08-02 13:28:00,59.8,18.0,29.95,WNW,298,2.0,16.0,20,0.00,,,0.01,963,weatherlink.com 1.10,2013-08-02 20:28:00,
2013-08-02 13:43:00,60.2,24.0,29.95,WSW,239,10.0,12.0,25,0.00,,,0.01,960,weatherlink.com 1.10,2013-08-02 20:43:00,
2013-08-02 13:59:00,60.2,20.0,29.94,West,269,8.0,15.0,21,0.00,,,0.01,953,weatherlink.com 1.10,2013-08-02 20:59:00,
2013-08-02 14:14:00,60.9,27.0,29.94,SW,225,7.0,14.0,27,0.00,,,0.01,940,weatherlink.com 1.10,2013-08-02 21:14:00,
2013-08-02 14:29:00,61.3,28.0,29.93,SW,222,3.0,14.0,28,0.00,,,0.01,923,weatherlink.com 1.10,2013-08-02 21:29:00,
2013-08-02 14:44:00,60.7,28.0,29.93,WNW,286,7.0,14.0,29,0.00,,,0.01,905,weatherlink.com 1.10,2013-08-02 21:44:00,
2013-08-02 14:59:00,61.2,31.0,29.93,WNW,294,8.0,12.0,32,0.00,,,0.01,881,weatherlink.com 1.10,2013-08-02 21:59:00,
2013-08-02 15:14:00,61.4,30.0,29.93,West,279,7.0,16.0,31,0.00,,,0.01,856,weatherlink.com 1.10,2013-08-02 22:14:00,
2013-08-02 15:29:00,61.4,29.0,29.92,West,279,7.0,13.0,29,0.00,,,0.01,826,weatherlink.com 1.10,2013-08-02 22:29:00,
2013-08-02 15:44:00,61.9,32.0,29.91,WNW,293,9.0,18.0,32,0.00,,,0.01,795,weatherlink.com 1.10,2013-08-02 22:44:00,
2013-08-02 15:59:00,61.2,31.0,29.91,West,265,4.0,16.0,32,0.00,,,0.01,763,weatherlink.com 1.10,2013-08-02 22:59:00,
2013-08-02 16:14:00,61.5,31.0,29.91,West,280,4.0,13.0,32,0.00,,,0.01,724,weatherlink.com 1.10,2013-08-02 23:14:00,
2013-08-02 16:29:00,61.2,29.0,29.91,West,270,9.0,14.0,30,0.00,,,0.01,687,weatherlink.com 1.10,2013-08-02 23:29:00,
2013-08-02 16:44:00,61.4,30.0,29.91,WNW,286,2.0,17.0,30,0.00,,,0.01,645,weatherlink.com 1.10,2013-08-02 23:44:00,
2013-08-02 17:00:00,61.0,28.0,29.91,WSW,250,6.0,17.0,29,0.00,,,0.01,601,weatherlink.com 1.10,2013-08-03 00:00:00,
2013-08-02 17:14:00,60.9,28.0,29.91,West,275,7.0,15.0,29,0.00,,,0.01,555,weatherlink.com 1.10,2013-08-03 00:14:00,
2013-08-02 17:30:00,61.4,32.0,29.90,WNW,285,8.0,17.0,33,0.00,,,0.01,508,weatherlink.com 1.10,2013-08-03 00:30:00,
2013-08-02 17:45:00,61.2,31.0,29.90,WSW,237,7.0,17.0,32,0.00,,,0.01,459,weatherlink.com 1.10,2013-08-03 00:45:00,
2013-08-02 18:00:00,61.4,30.0,29.91,NW,313,6.0,13.0,31,0.00,,,0.01,406,weatherlink.com 1.10,2013-08-03 01:00:00,
2013-08-02 18:15:00,60.5,30.0,29.90,West,261,7.0,15.0,32,0.00,,,0.01,353,weatherlink.com 1.10,2013-08-03 01:15:00,
2013-08-02 18:30:00,59.7,25.0,29.90,West,279,5.0,13.0,27,0.00,,,0.01,301,weatherlink.com 1.10,2013-08-03 01:30:00,
2013-08-02 18:45:00,59.0,19.0,29.90,NW,304,9.0,13.0,21,0.00,,,0.01,244,weatherlink.com 1.10,2013-08-03 01:45:00,
2013-08-02 19:00:00,59.0,18.0,29.90,West,277,8.0,11.0,20,0.00,,,0.01,193,weatherlink.com 1.10,2013-08-03 02:00:00,
2013-08-02 19:15:00,58.8,15.0,29.89,WNW,302,4.0,11.0,18,0.00,,,0.01,144,weatherlink.com 1.10,2013-08-03 02:15:00,
2013-08-02 19:30:00,57.8,9.0,29.89,West,281,7.0,11.0,14,0.00,,,0.01,93,weatherlink.com 1.10,2013-08-03 02:30:00,
2013-08-02 19:45:00,57.6,1.0,29.89,WNW,282,2.0,9.0,10,0.00,,,0.01,53,weatherlink.com 1.10,2013-08-03 02:45:00,
2013-08-02 20:00:00,56.9,-2.0,29.89,WSW,250,3.0,6.0,9,0.00,,,0.01,21,weatherlink.com 1.10,2013-08-03 03:00:00,
2013-08-02 20:15:00,55.7,-19.0,29.90,West,259,3.0,6.0,4,0.00,,,0.01,9,weatherlink.com 1.10,2013-08-03 03:15:00,
2013-08-02 20:31:00,54.9,-45.0,29.90,West,275,2.0,6.0,1,0.00,,,0.01,0,weatherlink.com 1.10,2013-08-03 03:31:00,
2013-08-02 20:46:00,54.1,-33.0,29.91,West,271,0.0,1.0,2,0.00,,,0.01,0,weatherlink.com 1.10,2013-08-03 03:46:00,
2013-08-02 21:01:00,53.6,-46.0,29.91,West,271,0.0,1.0,1,0.00,,,0.01,0,weatherlink.com 1.10,2013-08-03 04:01:00,
2013-08-02 21:16:00,52.8,-46.0,29.91,West,271,0.0,3.0,1,0.00,,,0.01,0,weatherlink.com 1.10,2013-08-03 04:16:00,
2013-08-02 21:31:00,52.1,-46.0,29.91,West,271,1.0,2.0,1,0.00,,,0.01,0,weatherlink.com 1.10,2013-08-03 04:31:00,
2013-08-02 21:46:00,51.6,-99.9,29.92,West,271,0.0,2.0,0,0.00,,,0.01,0,weatherlink.com 1.10,2013-08-03 04:46:00,
2013-08-02 22:01:00,51.2,-99.9,29.92,West,271,0.0,0.0,0,0.00,,,0.01,0,weatherlink.com 1.10,2013-08-03 05:01:00,
2013-08-02 22:16:00,51.0,-99.9,29.92,West,272,0.0,0.0,0,0.00,,,0.01,0,weatherlink.com 1.10,2013-08-03 05:16:00,
2013-08-02 22:31:00,50.5,-99.9,29.92,West,272,0.0,1.0,0,0.00,,,0.01,0,weatherlink.com 1.10,2013-08-03 05:31:00,
2013-08-02 22:46:00,50.2,-99.9,29.92,West,272,0.0,1.0,0,0.00,,,0.01,0,weatherlink.com 1.10,2013-08-03 05:46:00,
2013-08-02 23:01:00,49.8,-99.9,29.91,West,272,1.0,2.0,0,0.00,,,0.01,0,weatherlink.com 1.10,2013-08-03 06:01:00,
2013-08-02 23:16:00,50.1,-99.9,29.91,West,272,0.0,1.0,0,0.00,,,0.01,0,weatherlink.com 1.10,2013-08-03 06:16:00,
2013-08-02 23:31:00,49.9,-99.9,29.91,West,272,0.0,1.0,0,0.00,,,0.01,0,weatherlink.com 1.10,2013-08-03 06:31:00,
2013-08-02 23:47:00,49.7,-99.9,29.90,West,273,0.0,2.0,0,0.00,,,0.01,0,weatherlink.com 1.10,2013-08-03 06:47:00,